createdAt,value
2019-05-12T00:00:20.264Z,65.31
2019-05-12T00:02:48.734Z,65.27
2019-05-12T00:05:18.565Z,65.50
2019-05-12T00:07:48.746Z,65.42
2019-05-12T00:10:17.891Z,65.87
2019-05-12T00:12:48.516Z,65.76
2019-05-12T00:15:19.109Z,66.16
2019-05-12T00:17:48.524Z,66.04
2019-05-12T00:20:18.055Z,66.13
2019-05-12T00:22:58.212Z,66.29
2019-05-12T00:25:28.352Z,66.30
2019-05-12T00:27:58.649Z,66.39
2019-05-12T00:30:40.552Z,66.63
2019-05-12T00:33:09.598Z,66.80
2019-05-12T00:35:38.442Z,66.99
2019-05-12T00:38:08.967Z,67.25
2019-05-12T00:40:39.120Z,67.35
2019-05-12T00:43:08.978Z,67.50
2019-05-12T00:45:38.751Z,67.58
2019-05-12T00:48:09.013Z,67.69
2019-05-12T00:50:38.349Z,68.25
2019-05-12T00:53:09.066Z,68.03
2019-05-12T00:55:38.150Z,68.48
2019-05-12T00:58:08.226Z,68.68
2019-05-12T01:00:40.395Z,68.61
2019-05-12T01:03:08.638Z,68.72
2019-05-12T01:05:38.345Z,68.60
2019-05-12T01:08:09.134Z,68.87
2019-05-12T01:10:39.051Z,68.78
2019-05-12T01:13:08.518Z,66.03
2019-05-12T01:15:37.753Z,68.96
2019-05-12T01:18:09.348Z,69.61
2019-05-12T01:20:38.834Z,69.81
2019-05-12T01:23:08.612Z,69.84
2019-05-12T01:25:39.568Z,70.04
2019-05-12T01:28:08.247Z,70.37
2019-05-12T01:30:38.974Z,70.34
2019-05-12T01:33:08.583Z,70.55
2019-05-12T01:35:38.678Z,70.72
2019-05-12T01:38:08.107Z,70.64
2019-05-12T01:40:39.463Z,71.06
2019-05-12T01:43:08.642Z,71.25
2019-05-12T01:45:37.989Z,67.39
2019-05-12T01:48:08.323Z,71.03
2019-05-12T01:50:38.330Z,67.40
2019-05-12T01:53:08.141Z,71.38
2019-05-12T01:55:38.328Z,72.35
2019-05-12T01:58:08.274Z,72.59
2019-05-12T02:00:38.759Z,72.46
2019-05-12T02:03:09.114Z,72.88
2019-05-12T02:05:38.619Z,73.10
2019-05-12T02:08:09.685Z,73.26
2019-05-12T02:10:38.897Z,69.74
2019-05-12T02:13:08.022Z,72.59
2019-05-12T02:15:38.276Z,72.71
2019-05-12T02:18:08.789Z,72.91
2019-05-12T02:20:38.206Z,73.29
2019-05-12T02:23:08.606Z,73.67
2019-05-12T02:25:38.053Z,70.53
2019-05-12T02:28:08.780Z,73.07
2019-05-12T02:30:40.666Z,73.40
2019-05-12T02:33:06.889Z,73.54
2019-05-12T02:35:35.715Z,73.27
2019-05-12T02:38:05.299Z,73.39
2019-05-12T02:40:34.939Z,73.56
2019-05-12T02:43:05.336Z,73.35
2019-05-12T02:45:35.597Z,73.23
2019-05-12T02:48:05.068Z,72.87
2019-05-12T02:50:37.383Z,72.86
2019-05-12T02:53:06.777Z,72.50
2019-05-12T02:55:35.871Z,72.79
2019-05-12T02:58:05.898Z,72.34
2019-05-12T03:00:36.595Z,72.56
2019-05-12T03:03:07.738Z,72.38
2019-05-12T03:05:37.046Z,72.41
2019-05-12T03:08:05.536Z,72.45
2019-05-12T03:10:35.912Z,72.43
2019-05-12T03:13:04.747Z,72.50
2019-05-12T03:15:36.456Z,72.01
2019-05-12T03:18:06.052Z,72.55
2019-05-12T03:20:35.152Z,72.48
2019-05-12T03:23:05.736Z,72.32
2019-05-12T03:25:35.627Z,72.26
2019-05-12T03:28:08.213Z,72.45
2019-05-12T03:30:38.203Z,72.15
2019-05-12T03:33:09.697Z,72.37
2019-05-12T03:35:42.955Z,72.33
2019-05-12T03:38:05.337Z,72.38
2019-05-12T03:40:37.604Z,72.34
2019-05-12T03:43:05.402Z,72.27
2019-05-12T03:45:36.092Z,72.12
2019-05-12T03:48:05.770Z,72.40
2019-05-12T03:50:35.753Z,72.28
2019-05-12T03:53:09.955Z,72.26
2019-05-12T03:55:41.455Z,72.22
2019-05-12T03:58:09.194Z,72.22
2019-05-12T04:00:37.627Z,72.30
2019-05-12T04:03:06.539Z,72.24
2019-05-12T04:05:36.048Z,72.00
2019-05-12T04:08:06.404Z,72.11
2019-05-12T04:10:35.666Z,72.19
2019-05-12T04:13:04.886Z,70.03
2019-05-12T04:15:34.632Z,72.00
2019-05-12T04:18:05.385Z,72.10
2019-05-12T04:20:35.613Z,72.02
2019-05-12T04:23:06.030Z,72.06
2019-05-12T04:25:47.841Z,72.21
2019-05-12T04:28:04.741Z,72.14
2019-05-12T04:30:35.732Z,70.41
2019-05-12T04:33:05.044Z,71.42
2019-05-12T04:35:35.122Z,71.49
2019-05-12T04:38:04.744Z,71.48
2019-05-12T04:40:35.850Z,71.69
2019-05-12T04:43:05.746Z,71.20
2019-05-12T04:45:34.879Z,71.25
2019-05-12T04:48:05.639Z,71.36
2019-05-12T04:50:35.834Z,70.75
2019-05-12T04:53:06.740Z,70.68
2019-05-12T04:55:36.366Z,70.43
2019-05-12T04:58:05.526Z,70.06
2019-05-12T05:00:35.395Z,70.27
2019-05-12T05:03:05.422Z,69.76
2019-05-12T05:05:35.886Z,69.27
2019-05-12T05:08:05.262Z,68.80
2019-05-12T05:10:35.028Z,68.47
2019-05-12T05:13:05.229Z,68.19
2019-05-12T05:15:35.058Z,67.67
2019-05-12T05:18:06.260Z,67.29
2019-05-12T05:20:34.643Z,67.01
2019-05-12T05:23:04.186Z,66.57
2019-05-12T05:25:35.362Z,66.39
2019-05-12T05:28:04.978Z,66.25
2019-05-12T05:30:34.262Z,66.05
2019-05-12T05:33:05.087Z,65.61
2019-05-12T05:35:39.503Z,65.47
2019-05-12T05:38:05.679Z,65.40
2019-05-12T05:40:35.887Z,64.92
2019-05-12T05:43:12.401Z,64.82
2019-05-12T05:45:35.304Z,64.05
2019-05-12T05:48:09.691Z,64.24
2019-05-12T05:50:34.952Z,63.64
2019-05-12T05:53:03.896Z,63.41
2019-05-12T05:55:34.584Z,63.38
2019-05-12T05:58:07.818Z,63.17
2019-05-12T06:00:34.702Z,63.13
2019-05-12T06:03:05.262Z,63.06
2019-05-12T06:05:34.655Z,63.05
2019-05-12T06:08:04.345Z,62.55
2019-05-12T06:10:36.075Z,61.85
2019-05-12T06:13:04.056Z,61.67
2019-05-12T06:15:38.293Z,61.69
2019-05-12T06:18:04.441Z,61.38
2019-05-12T06:20:37.525Z,61.07
2019-05-12T06:23:04.266Z,60.95
2019-05-12T06:25:46.218Z,60.63
2019-05-12T06:28:08.583Z,59.98
2019-05-12T06:30:43.743Z,59.66
2019-05-12T06:33:04.794Z,59.42
2019-05-12T06:35:37.540Z,58.93
2019-05-12T06:38:04.953Z,58.78
2019-05-12T06:40:40.456Z,58.82
2019-05-12T06:43:04.518Z,58.27
2019-05-12T06:45:39.629Z,58.23
2019-05-12T06:48:03.859Z,58.22
2019-05-12T06:50:37.411Z,57.88
2019-05-12T06:53:05.055Z,58.34
2019-05-12T06:55:38.846Z,58.35
2019-05-12T06:58:04.652Z,58.20
2019-05-12T07:00:35.392Z,58.25
2019-05-12T07:03:04.336Z,57.96
2019-05-12T07:05:38.366Z,57.29
2019-05-12T07:08:04.340Z,56.37
2019-05-12T07:10:39.579Z,56.06
2019-05-12T07:13:05.612Z,56.03
2019-05-12T07:15:35.663Z,56.01
2019-05-12T07:18:05.488Z,55.87
2019-05-12T07:20:35.662Z,55.97
2019-05-12T07:23:04.233Z,55.86
2019-05-12T07:25:36.262Z,55.57
2019-05-12T07:28:07.552Z,54.94
2019-05-12T07:30:35.163Z,54.71
2019-05-12T07:33:04.598Z,54.02
2019-05-12T07:35:34.227Z,53.71
2019-05-12T07:38:04.552Z,53.96
2019-05-12T07:40:37.115Z,54.66
2019-05-12T07:43:04.396Z,53.42
2019-05-12T07:45:34.052Z,52.94
2019-05-12T07:48:08.152Z,52.95
2019-05-12T07:50:34.430Z,52.27
2019-05-12T07:53:04.266Z,51.72
2019-05-12T07:55:34.164Z,52.29
2019-05-12T07:58:12.637Z,51.21
2019-05-12T08:00:34.088Z,51.25
2019-05-12T08:03:06.281Z,51.44
2019-05-12T08:05:33.766Z,51.40
2019-05-12T08:08:07.107Z,52.34
2019-05-12T08:10:34.284Z,50.65
2019-05-12T08:13:04.454Z,50.30
2019-05-12T08:15:33.915Z,49.18
2019-05-12T08:18:07.495Z,49.89
2019-05-12T08:20:34.272Z,49.96
2019-05-12T08:23:05.905Z,49.44
2019-05-12T08:25:35.139Z,48.55
2019-05-12T08:28:14.961Z,48.17
2019-05-12T08:30:40.279Z,47.58
2019-05-12T08:33:09.440Z,47.46
2019-05-12T08:35:38.516Z,47.45
2019-05-12T08:38:08.467Z,47.22
2019-05-12T08:40:39.749Z,46.63
2019-05-12T08:43:10.230Z,46.78
2019-05-12T08:45:37.790Z,45.61
2019-05-12T08:48:10.147Z,46.63
2019-05-12T08:50:36.538Z,46.44
2019-05-12T08:53:05.186Z,45.82
2019-05-12T08:55:35.906Z,44.94
2019-05-12T08:58:03.850Z,43.76
2019-05-12T09:00:46.399Z,43.24
2019-05-12T09:03:13.691Z,42.13
2019-05-12T09:05:44.636Z,42.23
2019-05-12T09:08:13.885Z,42.06
2019-05-12T09:10:44.987Z,42.09
2019-05-12T09:13:14.355Z,38.59
2019-05-12T09:15:43.847Z,39.40
2019-05-12T09:18:14.552Z,37.94
2019-05-12T09:20:48.934Z,37.90
2019-05-12T09:23:13.758Z,36.41
2019-05-12T09:25:45.324Z,37.90
2019-05-12T09:28:13.840Z,37.25
2019-05-12T09:30:48.046Z,36.94
2019-05-12T09:33:14.093Z,36.27
2019-05-12T09:35:43.821Z,35.69
2019-05-12T09:38:21.449Z,33.55
2019-05-12T09:40:43.749Z,34.16
2019-05-12T09:43:13.710Z,32.32
2019-05-12T09:45:49.786Z,32.18
2019-05-12T09:48:14.031Z,32.98
2019-05-12T09:50:46.176Z,32.75
2019-05-12T09:53:14.397Z,32.98
2019-05-12T09:55:43.761Z,32.33
2019-05-12T09:58:15.801Z,30.49
2019-05-12T10:00:43.579Z,30.55
2019-05-12T10:03:14.866Z,29.63
2019-05-12T10:05:44.215Z,28.83
2019-05-12T10:08:13.843Z,29.76
2019-05-12T10:10:46.829Z,31.78
2019-05-12T10:13:14.588Z,32.52
2019-05-12T10:15:43.031Z,33.35
2019-05-12T10:18:12.075Z,33.90
2019-05-12T10:20:43.907Z,33.91
2019-05-12T10:23:16.538Z,28.79
2019-05-12T10:25:44.374Z,27.80
2019-05-12T10:28:13.903Z,30.72
2019-05-12T10:30:47.170Z,33.21
2019-05-12T10:33:13.896Z,34.82
2019-05-12T10:35:43.933Z,34.44
2019-05-12T10:38:13.760Z,34.76
2019-05-12T10:40:44.450Z,34.33
2019-05-12T10:43:11.917Z,32.21
2019-05-12T10:45:40.349Z,33.29
2019-05-12T10:48:08.784Z,32.68
2019-05-12T10:50:37.240Z,33.14
2019-05-12T10:53:09.967Z,32.97
2019-05-12T10:55:35.870Z,32.85
2019-05-12T10:58:07.111Z,32.81
2019-05-12T11:00:34.523Z,32.50
2019-05-12T11:03:10.118Z,32.56
2019-05-12T11:05:34.167Z,33.70
2019-05-12T11:08:06.468Z,32.22
2019-05-12T11:10:32.438Z,33.02
2019-05-12T11:13:05.858Z,32.25
2019-05-12T11:15:33.956Z,32.49
2019-05-12T11:18:03.124Z,32.65
2019-05-12T11:20:34.040Z,33.30
2019-05-12T11:23:03.467Z,32.77
2019-05-12T11:25:34.019Z,32.08
2019-05-12T11:28:03.800Z,31.02
2019-05-12T11:30:31.687Z,31.41
2019-05-12T11:33:00.055Z,31.81
2019-05-12T11:35:28.494Z,31.94
2019-05-12T11:37:57.024Z,32.71
2019-05-12T11:40:25.439Z,34.03
2019-05-12T11:42:59.515Z,33.65
2019-05-12T11:45:24.278Z,32.45
2019-05-12T11:47:56.881Z,32.49
2019-05-12T11:50:23.102Z,32.96
2019-05-12T11:52:52.262Z,33.84
2019-05-12T11:55:21.278Z,33.28
2019-05-12T11:57:50.896Z,33.86
2019-05-12T12:00:21.033Z,32.85
2019-05-12T12:02:49.513Z,33.06
2019-05-12T12:05:17.920Z,32.62
2019-05-12T12:07:50.759Z,33.61
2019-05-12T12:10:15.920Z,33.28
2019-05-12T12:12:48.971Z,32.78
2019-05-12T12:15:14.990Z,32.46
2019-05-12T12:17:44.132Z,32.37
2019-05-12T12:20:22.017Z,31.92
2019-05-12T12:22:46.586Z,32.26
2019-05-12T12:25:18.215Z,31.55
2019-05-12T12:27:46.698Z,32.36
2019-05-12T12:30:19.696Z,32.94
2019-05-12T12:32:50.242Z,31.84
2019-05-12T12:35:16.172Z,32.28
2019-05-12T12:37:44.971Z,32.07
2019-05-12T12:40:14.655Z,32.39
2019-05-12T12:42:47.065Z,32.44
2019-05-12T12:45:18.154Z,32.44
2019-05-12T12:47:49.146Z,32.65
2019-05-12T12:50:20.191Z,32.34
2019-05-12T12:52:48.831Z,32.23
2019-05-12T12:55:17.767Z,32.60
2019-05-12T12:57:50.577Z,32.31
2019-05-12T13:00:28.894Z,32.37
2019-05-12T13:02:49.294Z,32.75
2019-05-12T13:05:16.005Z,32.81
2019-05-12T13:07:44.426Z,33.73
2019-05-12T13:10:14.270Z,34.42
2019-05-12T13:12:43.810Z,34.56
2019-05-12T13:15:14.495Z,34.49
2019-05-12T13:17:44.774Z,33.28
2019-05-12T13:20:14.029Z,30.86
2019-05-12T13:22:44.397Z,31.05
2019-05-12T13:25:14.192Z,32.31
2019-05-12T13:27:42.946Z,33.44
2019-05-12T13:30:21.292Z,34.98
2019-05-12T13:32:44.150Z,33.11
2019-05-12T13:35:16.365Z,34.19
2019-05-12T13:37:43.278Z,33.80
2019-05-12T13:40:12.030Z,34.70
2019-05-12T13:42:40.496Z,36.66
2019-05-12T13:45:09.383Z,36.69
2019-05-12T13:47:39.784Z,37.63
2019-05-12T13:50:07.331Z,33.78
2019-05-12T13:52:35.698Z,33.53
2019-05-12T13:55:07.581Z,34.63
2019-05-12T13:57:35.535Z,34.22
2019-05-12T14:00:10.542Z,35.11
2019-05-12T14:02:37.156Z,33.85
2019-05-12T14:05:11.306Z,35.16
2019-05-12T14:07:36.991Z,35.83
2019-05-12T14:10:08.839Z,35.47
2019-05-12T14:12:37.263Z,35.75
2019-05-12T14:15:07.522Z,36.60
2019-05-12T14:17:40.353Z,36.97
2019-05-12T14:20:09.397Z,35.84
2019-05-12T14:22:37.527Z,34.05
2019-05-12T14:25:06.806Z,33.19
2019-05-12T14:27:35.233Z,33.91
2019-05-12T14:30:09.929Z,35.75
2019-05-12T14:32:34.847Z,36.26
2019-05-12T14:35:04.302Z,36.08
2019-05-12T14:37:33.575Z,35.47
2019-05-12T14:40:04.009Z,33.32
2019-05-12T14:42:34.709Z,33.97
2019-05-12T14:45:04.523Z,34.39
2019-05-12T14:47:33.974Z,33.85
2019-05-12T14:50:04.003Z,33.91
2019-05-12T14:52:33.372Z,33.71
2019-05-12T14:55:03.404Z,33.38
2019-05-12T14:57:37.426Z,34.10
2019-05-12T15:00:03.992Z,32.31
2019-05-12T15:02:33.359Z,34.01
2019-05-12T15:05:06.619Z,35.00
2019-05-12T15:07:31.956Z,34.89
2019-05-12T15:10:02.421Z,35.98
2019-05-12T15:12:30.575Z,35.62
2019-05-12T15:14:58.996Z,35.31
2019-05-12T15:17:27.579Z,34.77
2019-05-12T15:20:00.260Z,35.36
2019-05-12T15:22:26.176Z,35.30
2019-05-12T15:24:58.899Z,34.56
2019-05-12T15:27:41.050Z,32.25
2019-05-12T15:29:58.328Z,32.85
2019-05-12T15:32:25.657Z,34.78
2019-05-12T15:34:54.376Z,34.74
2019-05-12T15:37:23.825Z,34.94
2019-05-12T15:39:53.519Z,35.90
2019-05-12T15:42:23.536Z,35.70
2019-05-12T15:44:53.765Z,33.46
2019-05-12T15:47:26.743Z,32.00
2019-05-12T15:49:53.177Z,32.19
2019-05-12T15:52:24.516Z,29.76
2019-05-12T15:54:54.023Z,32.13
2019-05-12T15:57:24.458Z,31.09
2019-05-12T15:59:54.153Z,30.03
2019-05-12T16:02:23.497Z,28.61
2019-05-12T16:04:54.821Z,29.02
2019-05-12T16:07:24.127Z,28.22
2019-05-12T16:09:54.605Z,28.37
2019-05-12T16:12:24.339Z,28.31
2019-05-12T16:14:54.031Z,29.23
2019-05-12T16:17:24.908Z,29.62
2019-05-12T16:19:54.126Z,30.16
2019-05-12T16:22:23.210Z,30.49
2019-05-12T16:24:53.204Z,31.10
2019-05-12T16:27:24.872Z,29.80
2019-05-12T16:29:53.443Z,30.68
2019-05-12T16:32:26.965Z,30.83
2019-05-12T16:34:54.123Z,32.08
2019-05-12T16:37:30.932Z,33.46
2019-05-12T16:39:54.073Z,33.38
2019-05-12T16:42:23.609Z,33.00
2019-05-12T16:44:56.180Z,33.47
2019-05-12T16:47:25.050Z,33.30
2019-05-12T16:49:53.424Z,33.17
2019-05-12T16:52:24.251Z,33.71
2019-05-12T16:54:54.109Z,33.19
2019-05-12T16:57:22.332Z,33.03
2019-05-12T16:59:55.974Z,33.15
2019-05-12T17:02:23.360Z,33.38
2019-05-12T17:04:51.067Z,33.41
2019-05-12T17:07:20.959Z,33.99
2019-05-12T17:09:49.438Z,33.98
2019-05-12T17:12:17.858Z,34.11
2019-05-12T17:14:50.046Z,34.67
2019-05-12T17:17:16.941Z,34.70
2019-05-12T17:19:45.379Z,34.75
2019-05-12T17:22:13.782Z,34.38
2019-05-12T17:24:44.689Z,35.09
2019-05-12T17:27:15.739Z,35.37
2019-05-12T17:29:43.490Z,35.58
2019-05-12T17:32:13.410Z,36.07
2019-05-12T17:34:45.636Z,36.27
2019-05-12T17:37:14.365Z,36.79
2019-05-12T17:39:43.834Z,36.47
2019-05-12T17:42:20.892Z,37.13
2019-05-12T17:44:43.469Z,36.90
2019-05-12T17:47:14.821Z,36.30
2019-05-12T17:49:43.571Z,36.51
2019-05-12T17:52:15.806Z,36.69
2019-05-12T17:54:43.362Z,36.64
2019-05-12T17:57:15.829Z,36.14
2019-05-12T17:59:44.254Z,36.81
2019-05-12T18:02:16.416Z,37.18
2019-05-12T18:04:43.630Z,37.38
2019-05-12T18:07:14.449Z,36.89
2019-05-12T18:09:44.020Z,37.80
2019-05-12T18:12:13.858Z,38.33
2019-05-12T18:14:46.848Z,38.23
2019-05-12T18:17:14.276Z,38.42
2019-05-12T18:19:44.430Z,37.83
2019-05-12T18:22:14.091Z,38.00
2019-05-12T18:24:49.440Z,36.81
2019-05-12T18:27:13.685Z,37.29
2019-05-12T18:29:44.220Z,38.03
2019-05-12T18:32:13.833Z,38.51
2019-05-12T18:34:44.599Z,39.31
2019-05-12T18:37:13.595Z,40.10
2019-05-12T18:39:43.743Z,40.97
2019-05-12T18:42:13.988Z,41.34
2019-05-12T18:44:43.876Z,41.34
2019-05-12T18:47:16.663Z,42.06
2019-05-12T18:49:47.893Z,42.11
2019-05-12T18:52:14.631Z,42.66
2019-05-12T18:54:52.170Z,43.40
2019-05-12T18:57:13.676Z,43.47
2019-05-12T18:59:48.398Z,43.84
2019-05-12T19:02:14.597Z,44.59
2019-05-12T19:04:44.311Z,45.40
2019-05-12T19:07:15.182Z,45.04
2019-05-12T19:09:47.095Z,44.93
2019-05-12T19:12:17.991Z,44.35
2019-05-12T19:14:44.967Z,45.26
2019-05-12T19:17:14.100Z,45.89
2019-05-12T19:19:45.976Z,46.16
2019-05-12T19:22:14.137Z,46.15
2019-05-12T19:24:44.348Z,46.60
2019-05-12T19:27:19.000Z,46.53
2019-05-12T19:29:48.764Z,46.72
2019-05-12T19:32:14.379Z,45.32
2019-05-12T19:34:43.381Z,47.31
2019-05-12T19:37:14.288Z,47.37
2019-05-12T19:39:44.528Z,48.06
2019-05-12T19:42:18.630Z,48.37
2019-05-12T19:44:43.902Z,48.59
2019-05-12T19:47:13.786Z,49.02
2019-05-12T19:49:50.043Z,49.49
2019-05-12T19:52:14.184Z,49.40
2019-05-12T19:54:44.382Z,49.87
2019-05-12T19:57:21.577Z,50.45
2019-05-12T19:59:50.701Z,50.82
2019-05-12T20:02:17.215Z,51.53
2019-05-12T20:04:51.952Z,51.91
2019-05-12T20:07:15.813Z,51.78
2019-05-12T20:09:46.277Z,52.47
2019-05-12T20:12:18.704Z,52.74
2019-05-12T20:14:44.551Z,53.18
2019-05-12T20:17:12.979Z,53.79
2019-05-12T20:19:43.586Z,54.09
2019-05-12T20:22:13.706Z,54.87
2019-05-12T20:24:43.871Z,54.87
2019-05-12T20:27:17.300Z,55.30
2019-05-12T20:29:43.334Z,55.81
2019-05-12T20:32:13.772Z,53.60
2019-05-12T20:34:49.195Z,56.42
2019-05-12T20:37:14.164Z,56.66
2019-05-12T20:39:44.423Z,57.08
2019-05-12T20:42:14.188Z,57.27
2019-05-12T20:44:43.745Z,57.61
2019-05-12T20:47:14.023Z,57.92
2019-05-12T20:49:50.810Z,58.00
2019-05-12T20:52:14.424Z,58.40
2019-05-12T20:54:44.099Z,58.46
2019-05-12T20:57:14.145Z,59.34
2019-05-12T20:59:44.596Z,59.78
2019-05-12T21:02:14.106Z,59.70
2019-05-12T21:04:44.351Z,60.51
2019-05-12T21:07:13.975Z,60.73
2019-05-12T21:09:44.182Z,60.91
2019-05-12T21:12:13.798Z,61.18
2019-05-12T21:14:51.173Z,61.47
2019-05-12T21:17:15.887Z,61.67
2019-05-12T21:19:55.547Z,62.14
2019-05-12T21:22:14.300Z,62.09
2019-05-12T21:24:43.830Z,62.59
2019-05-12T21:27:15.801Z,63.13
2019-05-12T21:29:43.751Z,63.21
2019-05-12T21:32:16.579Z,63.21
2019-05-12T21:34:43.710Z,63.52
2019-05-12T21:37:13.991Z,63.70
2019-05-12T21:39:46.771Z,63.53
2019-05-12T21:42:13.617Z,64.01
2019-05-12T21:44:47.053Z,64.51
2019-05-12T21:47:13.900Z,64.54
2019-05-12T21:49:47.705Z,65.07
2019-05-12T21:52:13.602Z,65.40
2019-05-12T21:54:43.945Z,65.49
2019-05-12T21:57:12.471Z,65.60
2019-05-12T21:59:40.884Z,65.99
2019-05-12T22:02:09.592Z,66.40
2019-05-12T22:04:41.229Z,66.61
2019-05-12T22:07:08.177Z,66.59
2019-05-12T22:09:41.758Z,66.68
2019-05-12T22:12:06.738Z,66.63
2019-05-12T22:14:36.583Z,67.23
2019-05-12T22:17:06.980Z,67.31
2019-05-12T22:19:37.997Z,67.59
2019-05-12T22:22:05.558Z,67.04
2019-05-12T22:24:38.719Z,67.77
2019-05-12T22:27:05.103Z,67.89
2019-05-12T22:29:34.329Z,68.27
2019-05-12T22:32:05.171Z,67.99
2019-05-12T22:34:37.038Z,68.49
2019-05-12T22:37:03.948Z,68.45
2019-05-12T22:39:33.915Z,68.45
2019-05-12T22:42:03.547Z,64.80
2019-05-12T22:44:34.552Z,67.32
2019-05-12T22:47:04.208Z,68.29
2019-05-12T22:49:33.853Z,68.03
2019-05-12T22:52:06.317Z,68.71
2019-05-12T22:54:33.693Z,68.90
2019-05-12T22:57:04.100Z,69.28
2019-05-12T22:59:40.361Z,68.89
2019-05-12T23:02:04.374Z,69.22
2019-05-12T23:04:35.641Z,68.89
2019-05-12T23:07:02.920Z,69.25
2019-05-12T23:09:31.358Z,69.80
2019-05-12T23:11:59.778Z,69.72
2019-05-12T23:14:28.211Z,69.96
2019-05-12T23:16:59.940Z,69.77
2019-05-12T23:19:26.779Z,69.94
2019-05-12T23:21:58.804Z,69.92
2019-05-12T23:24:30.449Z,70.14
2019-05-12T23:26:55.506Z,70.09
2019-05-12T23:29:26.698Z,70.21
2019-05-12T23:31:54.178Z,70.23
2019-05-12T23:34:23.206Z,70.30
2019-05-12T23:36:56.860Z,70.63
2019-05-12T23:39:23.601Z,70.74
2019-05-12T23:41:53.769Z,70.68
2019-05-12T23:44:23.935Z,70.93
2019-05-12T23:46:53.815Z,70.93
2019-05-12T23:49:24.262Z,70.94
2019-05-12T23:51:54.207Z,70.73
2019-05-12T23:54:23.847Z,71.38
2019-05-12T23:56:53.687Z,71.50
2019-05-12T23:59:23.956Z,71.40
